createdAt,value
2017-09-20T00:00:30.293Z,5.30
2017-09-20T00:02:58.906Z,4.77
2017-09-20T00:05:26.732Z,4.80
2017-09-20T00:07:55.312Z,4.27
2017-09-20T00:10:23.925Z,4.70
2017-09-20T00:12:51.716Z,5.20
2017-09-20T00:15:20.272Z,4.97
2017-09-20T00:17:48.121Z,5.10
2017-09-20T00:20:15.924Z,3.90
2017-09-20T00:22:43.763Z,4.27
2017-09-20T00:25:11.570Z,5.33
2017-09-20T00:27:39.394Z,4.47
2017-09-20T00:30:07.203Z,4.60
2017-09-20T00:32:35.028Z,9.00
2017-09-20T00:35:02.904Z,5.40
2017-09-20T00:37:30.701Z,4.50
2017-09-20T00:39:58.521Z,5.90
2017-09-20T00:42:26.389Z,6.37
2017-09-20T00:44:54.240Z,5.93
2017-09-20T00:47:22.836Z,7.27
2017-09-20T00:49:51.727Z,6.50
2017-09-20T00:52:19.500Z,8.00
2017-09-20T00:54:47.325Z,7.43
2017-09-20T00:57:15.208Z,8.17
2017-09-20T00:59:43.876Z,6.30
2017-09-20T01:02:11.701Z,5.30
2017-09-20T01:04:39.535Z,6.07
2017-09-20T01:07:08.120Z,6.00
2017-09-20T01:09:35.950Z,6.87
2017-09-20T01:12:03.845Z,7.77
2017-09-20T01:14:32.533Z,7.70
2017-09-20T01:17:01.104Z,6.77
2017-09-20T01:19:29.756Z,6.97
2017-09-20T01:22:09.465Z,5.70
2017-09-20T01:24:37.421Z,6.40
2017-09-20T01:27:05.384Z,5.97
2017-09-20T01:29:33.228Z,4.87
2017-09-20T01:32:01.083Z,4.77
2017-09-20T01:34:28.936Z,5.13
2017-09-20T01:36:56.772Z,4.73
2017-09-20T01:39:24.652Z,4.90
2017-09-20T01:41:52.433Z,5.40
2017-09-20T01:44:20.294Z,4.30
2017-09-20T01:46:48.120Z,3.80
2017-09-20T01:49:15.918Z,4.40
2017-09-20T01:51:43.692Z,3.63
2017-09-20T01:54:11.495Z,3.80
2017-09-20T01:56:40.035Z,4.10
2017-09-20T01:59:07.833Z,3.50
2017-09-20T02:01:36.418Z,3.97
2017-09-20T02:04:05.031Z,3.63
2017-09-20T02:06:32.868Z,4.03
2017-09-20T02:09:01.424Z,3.67
2017-09-20T02:11:29.240Z,3.93
2017-09-20T02:13:57.112Z,4.17
2017-09-20T02:16:24.900Z,4.17
2017-09-20T02:18:52.692Z,4.00
2017-09-20T02:21:20.501Z,4.63
2017-09-20T02:23:48.285Z,4.03
2017-09-20T02:26:16.088Z,3.40
2017-09-20T02:28:43.949Z,5.50
2017-09-20T02:31:11.811Z,3.30
2017-09-20T02:33:39.648Z,3.50
2017-09-20T02:36:07.563Z,4.70
2017-09-20T02:38:36.236Z,4.20
2017-09-20T02:41:04.079Z,4.53
2017-09-20T02:43:31.976Z,3.90
2017-09-20T02:46:00.717Z,4.23
2017-09-20T02:48:28.616Z,4.47
2017-09-20T02:50:56.455Z,4.03
2017-09-20T02:53:24.279Z,4.50
2017-09-20T02:55:52.966Z,4.20
2017-09-20T02:58:21.610Z,4.70
2017-09-20T03:00:49.568Z,4.30
2017-09-20T03:03:17.452Z,4.10
2017-09-20T03:05:45.344Z,4.80
2017-09-20T03:08:13.939Z,4.77
2017-09-20T03:10:42.534Z,5.10
2017-09-20T03:13:10.400Z,5.20
2017-09-20T03:15:38.232Z,4.90
2017-09-20T03:18:06.023Z,5.40
2017-09-20T03:20:33.956Z,5.43
2017-09-20T03:23:01.790Z,4.90
2017-09-20T03:25:29.635Z,5.80
2017-09-20T03:27:57.495Z,5.07
2017-09-20T03:30:25.357Z,5.80
2017-09-20T03:32:53.181Z,5.90
2017-09-20T03:35:21.053Z,5.37
2017-09-20T03:37:48.911Z,5.80
2017-09-20T03:40:16.752Z,5.47
2017-09-20T03:42:44.588Z,5.40
2017-09-20T03:45:12.486Z,5.67
2017-09-20T03:47:40.289Z,4.90
2017-09-20T03:50:08.141Z,5.17
2017-09-20T03:52:36.036Z,5.73
2017-09-20T03:55:03.955Z,5.03
2017-09-20T03:57:31.856Z,5.90
2017-09-20T04:00:00.459Z,5.57
2017-09-20T04:02:29.048Z,5.67
2017-09-20T04:04:56.881Z,6.37
2017-09-20T04:07:24.699Z,5.40
2017-09-20T04:09:52.599Z,5.83
2017-09-20T04:12:20.443Z,6.37
2017-09-20T04:14:48.256Z,6.87
2017-09-20T04:17:16.918Z,6.00
2017-09-20T04:19:44.745Z,6.50
2017-09-20T04:22:12.591Z,5.93
2017-09-20T04:24:40.481Z,6.37
2017-09-20T04:27:08.297Z,5.27
2017-09-20T04:29:36.153Z,4.83
2017-09-20T04:32:04.031Z,6.43
2017-09-20T04:34:32.655Z,5.07
2017-09-20T04:37:00.487Z,5.50
2017-09-20T04:39:29.105Z,4.80
2017-09-20T04:41:57.059Z,6.53
2017-09-20T04:44:24.919Z,5.30
2017-09-20T04:46:53.551Z,5.70
2017-09-20T04:49:21.377Z,4.57
2017-09-20T04:51:49.255Z,4.93
2017-09-20T04:54:17.182Z,3.40
2017-09-20T04:56:45.778Z,4.00
2017-09-20T04:59:14.381Z,4.00
2017-09-20T05:01:42.327Z,3.33
2017-09-20T05:04:11.023Z,3.97
2017-09-20T05:06:39.669Z,4.70
2017-09-20T05:09:07.585Z,4.70
2017-09-20T05:11:35.405Z,4.10
2017-09-20T05:14:03.320Z,6.90
2017-09-20T05:16:32.004Z,5.50
2017-09-20T05:18:59.875Z,4.10
2017-09-20T05:21:27.731Z,4.00
2017-09-20T05:23:55.624Z,4.13
2017-09-20T05:26:23.531Z,3.90
2017-09-20T05:28:51.508Z,4.10
2017-09-20T05:31:20.180Z,4.10
2017-09-20T05:33:48.079Z,4.73
2017-09-20T05:36:16.711Z,4.23
2017-09-20T05:38:44.563Z,4.40
2017-09-20T05:41:12.405Z,4.90
2017-09-20T05:43:40.322Z,5.07
2017-09-20T05:46:08.193Z,5.13
2017-09-20T05:48:36.059Z,5.53
2017-09-20T05:51:03.912Z,4.80
2017-09-20T05:53:33.723Z,3.67
2017-09-20T05:56:01.602Z,3.63
2017-09-20T05:58:29.465Z,5.37
2017-09-20T06:00:57.481Z,5.90
2017-09-20T06:03:25.379Z,4.43
2017-09-20T06:05:54.044Z,4.67
2017-09-20T06:08:21.911Z,4.20
2017-09-20T06:10:49.751Z,4.23
2017-09-20T06:13:18.363Z,3.37
2017-09-20T06:15:46.273Z,3.77
2017-09-20T06:18:14.103Z,4.23
2017-09-20T06:20:41.912Z,5.30
2017-09-20T06:23:10.592Z,3.70
2017-09-20T06:25:38.496Z,4.00
2017-09-20T06:28:06.486Z,4.07
2017-09-20T06:30:34.322Z,4.73
2017-09-20T06:33:03.020Z,3.73
2017-09-20T06:35:31.704Z,4.00
2017-09-20T06:37:59.521Z,4.00
2017-09-20T06:40:27.380Z,3.83
2017-09-20T06:42:55.203Z,4.30
2017-09-20T06:45:23.882Z,4.30
2017-09-20T06:47:52.509Z,4.80
2017-09-20T06:50:20.544Z,4.17
2017-09-20T06:52:48.393Z,4.00
2017-09-20T06:55:16.979Z,3.47
2017-09-20T06:57:45.603Z,5.17
2017-09-20T07:00:13.496Z,5.57
2017-09-20T07:02:41.370Z,4.00
2017-09-20T07:05:09.225Z,4.50
2017-09-20T07:07:37.060Z,5.10
2017-09-20T07:10:04.895Z,4.90
2017-09-20T07:12:33.568Z,5.23
2017-09-20T07:15:01.411Z,4.70
2017-09-20T07:17:29.276Z,4.47
2017-09-20T07:19:57.184Z,6.27
2017-09-20T07:22:25.919Z,4.87
2017-09-20T07:24:53.801Z,5.90
2017-09-20T07:27:21.707Z,5.97
2017-09-20T07:29:50.317Z,5.87
2017-09-20T07:32:18.193Z,6.20
2017-09-20T07:34:46.063Z,4.60
2017-09-20T07:37:13.959Z,6.27
2017-09-20T07:39:41.847Z,6.03
2017-09-20T07:42:10.449Z,5.97
2017-09-20T07:44:38.345Z,5.80
2017-09-20T07:47:06.168Z,6.37
2017-09-20T07:49:34.745Z,5.43
2017-09-20T07:52:03.429Z,5.77
2017-09-20T07:54:32.089Z,5.90
2017-09-20T07:56:59.983Z,5.40
2017-09-20T07:59:28.659Z,5.20
2017-09-20T08:01:57.327Z,5.57
2017-09-20T08:04:25.176Z,5.03
2017-09-20T08:06:53.090Z,5.00
2017-09-20T08:09:21.812Z,5.67
2017-09-20T08:11:49.652Z,4.10
2017-09-20T08:14:18.254Z,5.90
2017-09-20T08:16:46.083Z,5.10
2017-09-20T08:19:14.701Z,5.23
2017-09-20T08:21:42.533Z,4.00
2017-09-20T08:24:11.134Z,6.37
2017-09-20T08:26:39.808Z,4.80
2017-09-20T08:29:08.452Z,4.63
2017-09-20T08:31:36.278Z,4.13
2017-09-20T08:34:04.212Z,5.43
2017-09-20T08:36:32.051Z,6.27
2017-09-20T08:38:59.999Z,6.93
2017-09-20T08:41:27.896Z,5.87
2017-09-20T08:43:55.808Z,5.63
2017-09-20T08:46:23.681Z,5.13
2017-09-20T08:48:51.527Z,6.67
2017-09-20T08:51:20.100Z,4.77
2017-09-20T08:53:47.925Z,4.90
2017-09-20T08:56:16.594Z,4.80
2017-09-20T08:58:44.405Z,5.93
2017-09-20T09:01:12.271Z,7.37
2017-09-20T09:03:40.129Z,5.63
2017-09-20T09:06:07.948Z,5.20
2017-09-20T09:08:35.760Z,5.30
2017-09-20T09:11:03.669Z,4.97
2017-09-20T09:13:31.549Z,6.00
2017-09-20T09:15:59.446Z,5.70
2017-09-20T09:18:27.292Z,4.93
2017-09-20T09:20:55.136Z,4.57
2017-09-20T09:23:23.017Z,4.83
2017-09-20T09:25:50.881Z,4.60
2017-09-20T09:28:18.699Z,5.17
2017-09-20T09:30:46.568Z,5.73
2017-09-20T09:33:14.551Z,5.60
2017-09-20T09:35:43.308Z,4.60
2017-09-20T09:38:11.142Z,3.90
2017-09-20T09:40:39.027Z,4.70
2017-09-20T09:43:06.902Z,4.77
2017-09-20T09:45:34.768Z,4.70
2017-09-20T09:48:02.671Z,4.87
2017-09-20T09:50:31.302Z,4.20
2017-09-20T09:52:59.382Z,4.60
2017-09-20T09:55:28.272Z,5.60
2017-09-20T09:57:56.420Z,4.10
2017-09-20T10:00:24.380Z,5.80
2017-09-20T10:02:52.361Z,4.00
2017-09-20T10:05:20.168Z,4.63
2017-09-20T10:07:48.009Z,5.53
2017-09-20T10:10:15.879Z,6.00
2017-09-20T10:12:43.761Z,7.63
2017-09-20T10:15:12.088Z,7.13
2017-09-20T10:17:40.675Z,6.07
2017-09-20T10:20:08.586Z,6.00
2017-09-20T10:22:36.414Z,7.80
2017-09-20T10:25:04.270Z,9.53
2017-09-20T10:27:32.886Z,9.57
2017-09-20T10:30:00.721Z,7.70
2017-09-20T10:32:28.542Z,9.60
2017-09-20T10:34:57.377Z,9.40
2017-09-20T10:37:25.467Z,9.43
2017-09-20T10:39:54.484Z,9.30
2017-09-20T10:42:22.332Z,8.00
2017-09-20T10:44:50.250Z,8.27
2017-09-20T10:47:19.054Z,8.23
2017-09-20T10:49:46.875Z,8.00
2017-09-20T10:52:14.888Z,9.60
2017-09-20T10:54:43.499Z,8.93
2017-09-20T10:57:11.603Z,8.90
2017-09-20T10:59:39.511Z,10.07
2017-09-20T11:02:07.371Z,10.33
2017-09-20T11:04:35.974Z,8.80
2017-09-20T11:07:03.824Z,9.20
2017-09-20T11:09:32.480Z,11.93
2017-09-20T11:12:00.361Z,13.60
2017-09-20T11:14:28.252Z,9.43
2017-09-20T11:16:56.251Z,10.83
2017-09-20T11:19:24.085Z,9.07
2017-09-20T11:21:51.983Z,9.17
2017-09-20T11:24:19.880Z,7.87
2017-09-20T11:26:47.750Z,10.57
2017-09-20T11:29:15.610Z,9.50
2017-09-20T11:31:43.514Z,8.40
2017-09-20T11:34:12.177Z,7.73
2017-09-20T11:36:40.786Z,6.83
2017-09-20T11:39:09.376Z,6.10
2017-09-20T11:41:37.220Z,6.80
2017-09-20T11:44:06.151Z,8.20
2017-09-20T11:46:34.063Z,8.53
2017-09-20T11:49:01.910Z,7.17
2017-09-20T11:51:29.877Z,7.00
2017-09-20T11:53:57.695Z,6.63
2017-09-20T11:56:25.523Z,7.10
2017-09-20T11:58:53.361Z,7.23
2017-09-20T12:01:21.186Z,7.20
2017-09-20T12:03:49.852Z,7.77
2017-09-20T12:06:18.495Z,6.20
2017-09-20T12:08:46.764Z,8.10
2017-09-20T12:11:14.559Z,6.67
2017-09-20T12:13:42.501Z,7.00
2017-09-20T12:16:10.340Z,7.33
2017-09-20T12:18:38.952Z,7.20
2017-09-20T12:21:06.894Z,8.10
2017-09-20T12:23:34.783Z,7.00
2017-09-20T12:26:03.355Z,7.00
2017-09-20T12:28:31.160Z,6.70
2017-09-20T12:30:59.089Z,6.17
2017-09-20T12:33:26.992Z,9.20
2017-09-20T12:35:54.912Z,7.00
2017-09-20T12:38:22.745Z,8.07
2017-09-20T12:40:50.596Z,8.90
2017-09-20T12:43:18.407Z,6.90
2017-09-20T12:45:46.230Z,7.43
2017-09-20T12:48:14.124Z,8.23
2017-09-20T12:50:42.730Z,7.03
2017-09-20T12:53:10.566Z,7.30
2017-09-20T12:55:38.463Z,7.73
2017-09-20T12:58:06.310Z,7.10
2017-09-20T13:00:34.968Z,8.45
2017-09-20T13:03:02.888Z,9.87
2017-09-20T13:05:30.717Z,7.70
2017-09-20T13:07:59.398Z,7.60
2017-09-20T13:10:28.066Z,8.17
2017-09-20T13:12:55.880Z,8.50
2017-09-20T13:15:23.703Z,8.33
2017-09-20T13:17:51.617Z,8.80
2017-09-20T13:20:19.557Z,8.40
2017-09-20T13:22:48.138Z,7.77
2017-09-20T13:25:16.765Z,8.50
2017-09-20T13:27:44.585Z,10.60
2017-09-20T13:30:13.231Z,11.10
2017-09-20T13:32:41.077Z,9.23
2017-09-20T13:35:08.933Z,9.30
2017-09-20T13:37:36.745Z,9.60
2017-09-20T13:40:04.604Z,9.90
2017-09-20T13:42:32.527Z,6.70
2017-09-20T13:45:00.375Z,8.80
2017-09-20T13:47:28.977Z,8.40
2017-09-20T13:49:56.811Z,8.27
2017-09-20T13:52:24.656Z,9.73
2017-09-20T13:54:52.623Z,8.90
2017-09-20T13:57:20.704Z,8.27
2017-09-20T13:59:48.711Z,8.37
2017-09-20T14:02:17.292Z,8.53
2017-09-20T14:04:45.896Z,7.87
2017-09-20T14:07:13.782Z,8.63
2017-09-20T14:09:41.658Z,8.97
2017-09-20T14:12:09.661Z,10.00
2017-09-20T14:14:38.249Z,7.83
2017-09-20T14:17:06.873Z,8.30
2017-09-20T14:19:34.715Z,7.57
2017-09-20T14:22:03.371Z,8.37
2017-09-20T14:24:31.223Z,7.90
2017-09-20T14:26:59.158Z,7.53
2017-09-20T14:29:27.066Z,8.27
2017-09-20T14:31:55.690Z,7.77
2017-09-20T14:34:23.612Z,7.47
2017-09-20T14:36:51.424Z,6.97
2017-09-20T14:39:19.344Z,7.00
2017-09-20T14:41:47.201Z,6.87
2017-09-20T14:44:15.067Z,7.57
2017-09-20T14:46:42.879Z,7.10
2017-09-20T14:49:11.506Z,7.70
2017-09-20T14:51:39.336Z,8.13
2017-09-20T14:54:07.169Z,7.47
2017-09-20T14:56:35.044Z,8.23
2017-09-20T14:59:03.689Z,8.20
2017-09-20T15:01:31.521Z,7.03
2017-09-20T15:03:59.440Z,7.67
2017-09-20T15:06:27.254Z,7.77
2017-09-20T15:08:55.166Z,8.27
2017-09-20T15:11:22.989Z,8.40
2017-09-20T15:13:50.884Z,7.30
2017-09-20T15:16:18.825Z,9.00
2017-09-20T15:18:46.710Z,6.37
2017-09-20T15:21:14.583Z,7.00
2017-09-20T15:23:42.592Z,6.20
2017-09-20T15:26:10.399Z,7.40
2017-09-20T15:28:38.288Z,6.30
2017-09-20T15:31:06.902Z,6.80
2017-09-20T15:33:34.741Z,5.33
2017-09-20T15:36:02.584Z,5.87
2017-09-20T15:38:30.460Z,4.30
2017-09-20T15:40:58.301Z,5.50
2017-09-20T15:43:26.185Z,4.70
2017-09-20T15:45:54.056Z,4.50
2017-09-20T15:48:21.904Z,5.00
2017-09-20T15:50:49.734Z,5.40
2017-09-20T15:53:17.638Z,5.43
2017-09-20T15:55:45.513Z,4.57
2017-09-20T15:58:13.435Z,5.13
2017-09-20T16:00:42.679Z,4.70
2017-09-20T16:03:10.603Z,5.30
2017-09-20T16:05:39.187Z,4.80
2017-09-20T16:08:09.490Z,5.33
2017-09-20T16:10:37.451Z,4.40
2017-09-20T16:13:06.084Z,5.67
2017-09-20T16:15:34.701Z,5.33
2017-09-20T16:18:02.579Z,4.87
2017-09-20T16:20:30.428Z,3.90
2017-09-20T16:22:58.297Z,5.20
2017-09-20T16:25:26.165Z,4.43
2017-09-20T16:27:54.146Z,5.13
2017-09-20T16:30:22.076Z,4.60
2017-09-20T16:32:49.917Z,4.80
2017-09-20T16:35:17.768Z,5.30
2017-09-20T16:37:45.646Z,4.70
2017-09-20T16:40:13.486Z,4.70
2017-09-20T16:42:41.359Z,4.93
2017-09-20T16:45:09.234Z,5.13
2017-09-20T16:47:37.113Z,4.73
2017-09-20T16:50:04.981Z,4.03
2017-09-20T16:52:32.902Z,4.03
2017-09-20T16:55:00.874Z,3.80
2017-09-20T16:57:28.766Z,3.73
2017-09-20T16:59:56.756Z,3.30
2017-09-20T17:02:25.572Z,3.67
2017-09-20T17:04:53.511Z,2.73
2017-09-20T17:07:22.116Z,3.03
2017-09-20T17:09:50.775Z,2.63
2017-09-20T17:12:19.398Z,2.47
2017-09-20T17:14:47.240Z,2.97
2017-09-20T17:17:15.902Z,2.67
2017-09-20T17:19:43.874Z,3.50
2017-09-20T17:22:11.689Z,2.60
2017-09-20T17:24:39.577Z,2.53
2017-09-20T17:27:07.517Z,2.87
2017-09-20T17:29:35.392Z,3.30
2017-09-20T17:32:03.288Z,3.03
2017-09-20T17:34:31.108Z,2.43
2017-09-20T17:36:59.725Z,3.17
2017-09-20T17:39:27.639Z,3.23
2017-09-20T17:41:56.295Z,4.00
2017-09-20T17:44:24.233Z,3.53
2017-09-20T17:46:52.092Z,3.63
2017-09-20T17:49:20.948Z,3.43
2017-09-20T17:51:49.545Z,3.30
2017-09-20T17:54:18.251Z,5.00
2017-09-20T17:56:46.105Z,3.33
2017-09-20T17:59:13.921Z,3.33
2017-09-20T18:01:41.765Z,3.23
2017-09-20T18:04:09.648Z,3.50
2017-09-20T18:06:37.494Z,3.40
2017-09-20T18:09:05.336Z,3.70
2017-09-20T18:11:33.194Z,3.63
2017-09-20T18:14:01.790Z,3.57
2017-09-20T18:16:29.634Z,3.77
2017-09-20T18:18:58.329Z,4.40
2017-09-20T18:21:26.160Z,4.10
2017-09-20T18:23:54.112Z,3.97
2017-09-20T18:26:21.932Z,3.70
2017-09-20T18:28:49.787Z,5.20
2017-09-20T18:31:18.368Z,4.03
2017-09-20T18:33:46.920Z,4.00
2017-09-20T18:36:14.872Z,4.00
2017-09-20T18:38:42.657Z,3.47
2017-09-20T18:41:10.468Z,4.57
2017-09-20T18:43:38.274Z,4.60
2017-09-20T18:46:06.124Z,4.60
2017-09-20T18:48:34.005Z,7.57
2017-09-20T18:51:01.949Z,17.10
2017-09-20T18:53:30.565Z,13.00
2017-09-20T18:55:58.431Z,10.53
2017-09-20T18:58:26.241Z,6.67
2017-09-20T19:00:54.816Z,7.33
2017-09-20T19:03:23.372Z,6.10
2017-09-20T19:05:53.143Z,6.43
2017-09-20T19:08:20.944Z,5.73
2017-09-20T19:10:50.444Z,7.20
2017-09-20T19:13:18.261Z,7.10
2017-09-20T19:15:46.089Z,7.00
2017-09-20T19:18:13.884Z,6.73
2017-09-20T19:20:41.749Z,6.90
2017-09-20T19:23:10.334Z,5.83
2017-09-20T19:25:38.915Z,6.00
2017-09-20T19:28:07.508Z,6.00
2017-09-20T19:30:35.432Z,5.70
2017-09-20T19:33:03.283Z,5.20
2017-09-20T19:35:31.127Z,6.00
2017-09-20T19:37:58.914Z,5.30
2017-09-20T19:40:26.780Z,5.90
2017-09-20T19:42:54.620Z,5.90
2017-09-20T19:45:22.507Z,5.37
2017-09-20T19:47:50.382Z,5.60
2017-09-20T19:50:18.160Z,7.33
2017-09-20T19:52:46.008Z,6.63
2017-09-20T19:55:13.827Z,5.57
2017-09-20T19:57:42.558Z,6.03
2017-09-20T20:00:10.412Z,6.40
2017-09-20T20:02:38.315Z,5.73
2017-09-20T20:05:06.204Z,5.97
2017-09-20T20:07:34.774Z,6.33
2017-09-20T20:10:03.518Z,5.60
2017-09-20T20:12:31.313Z,6.20
2017-09-20T20:14:59.575Z,6.77
2017-09-20T20:17:27.362Z,6.07
2017-09-20T20:19:55.174Z,5.60
2017-09-20T20:22:22.974Z,6.93
2017-09-20T20:24:51.542Z,5.47
2017-09-20T20:27:20.291Z,5.90
2017-09-20T20:29:48.104Z,4.43
2017-09-20T20:32:16.016Z,4.70
2017-09-20T20:34:44.588Z,5.23
2017-09-20T20:37:13.149Z,5.07
2017-09-20T20:39:40.987Z,4.73
2017-09-20T20:42:08.802Z,4.43
2017-09-20T20:44:37.382Z,3.80
2017-09-20T20:47:06.016Z,3.67
2017-09-20T20:49:34.595Z,4.90
2017-09-20T20:52:02.394Z,5.20
2017-09-20T20:54:30.209Z,4.60
2017-09-20T20:56:58.090Z,4.50
2017-09-20T20:59:26.870Z,4.37
2017-09-20T21:01:54.662Z,4.20
2017-09-20T21:04:22.472Z,5.00
2017-09-20T21:06:51.061Z,4.40
2017-09-20T21:09:18.855Z,4.73
2017-09-20T21:11:46.693Z,4.40
2017-09-20T21:14:14.517Z,3.83
2017-09-20T21:16:43.120Z,2.90
2017-09-20T21:19:10.974Z,4.00
2017-09-20T21:21:38.907Z,4.00
2017-09-20T21:24:07.565Z,3.77
2017-09-20T21:26:36.145Z,4.97
2017-09-20T21:29:04.783Z,4.30
2017-09-20T21:31:32.689Z,4.83
2017-09-20T21:34:01.880Z,4.20
2017-09-20T21:36:29.741Z,5.47
2017-09-20T21:38:57.537Z,4.90
2017-09-20T21:41:25.355Z,4.13
2017-09-20T21:43:53.206Z,4.30
2017-09-20T21:46:20.996Z,3.33
2017-09-20T21:48:48.793Z,3.50
2017-09-20T21:51:17.493Z,4.63
2017-09-20T21:53:46.048Z,4.70
2017-09-20T21:56:14.702Z,3.90
2017-09-20T21:58:42.581Z,3.43
2017-09-20T22:01:11.161Z,3.67
2017-09-20T22:03:39.021Z,4.20
2017-09-20T22:06:06.820Z,3.90
2017-09-20T22:08:35.368Z,5.40
2017-09-20T22:11:03.303Z,4.00
2017-09-20T22:13:31.148Z,4.20
2017-09-20T22:16:10.971Z,4.90
2017-09-20T22:18:51.318Z,4.80
2017-09-20T22:21:30.883Z,4.47
2017-09-20T22:24:10.517Z,4.30
2017-09-20T22:26:44.451Z,3.60
2017-09-20T22:29:12.435Z,3.87
2017-09-20T22:31:40.301Z,5.83
2017-09-20T22:34:08.151Z,5.07
2017-09-20T22:36:35.952Z,4.33
2017-09-20T22:39:03.944Z,5.10
2017-09-20T22:41:31.765Z,4.20
2017-09-20T22:43:59.640Z,3.87
2017-09-20T22:46:28.440Z,4.20
2017-09-20T22:48:57.051Z,4.70
2017-09-20T22:51:24.947Z,3.57
2017-09-20T22:53:52.801Z,3.37
2017-09-20T22:56:21.430Z,4.20
2017-09-20T22:58:49.348Z,4.00
2017-09-20T23:01:17.966Z,3.33
2017-09-20T23:03:45.869Z,3.87
2017-09-20T23:06:13.792Z,3.47
2017-09-20T23:08:41.670Z,3.50
2017-09-20T23:11:09.506Z,3.57
2017-09-20T23:13:38.116Z,3.63
2017-09-20T23:16:06.703Z,4.43
2017-09-20T23:18:34.593Z,3.90
2017-09-20T23:21:02.417Z,3.47
2017-09-20T23:23:30.231Z,3.30
2017-09-20T23:25:58.128Z,3.67
2017-09-20T23:28:26.666Z,3.40
2017-09-20T23:30:54.488Z,2.90
2017-09-20T23:33:22.297Z,3.23
2017-09-20T23:35:50.079Z,3.43
2017-09-20T23:38:17.864Z,2.80
2017-09-20T23:40:46.411Z,3.27
2017-09-20T23:43:14.317Z,3.10
2017-09-20T23:45:42.884Z,2.80
2017-09-20T23:48:10.687Z,3.28
2017-09-20T23:50:38.503Z,2.97
2017-09-20T23:53:06.287Z,3.80
2017-09-20T23:55:34.863Z,3.43
2017-09-20T23:58:02.722Z,3.03
